sensor_id;sensor_type;location;lat;lon;timestamp;pressure;altitude;pressure_sealevel;temperature;humidity
10064;BME280;5071;52.360;13.134;2023-04-20T00:01:51;101559.88;;;6.18;100.00
10064;BME280;5071;52.360;13.134;2023-04-20T00:06:53;101554.69;;;6.21;100.00
10064;BME280;5071;52.360;13.134;2023-04-20T00:11:55;101553.63;;;6.13;100.00
10064;BME280;5071;52.360;13.134;2023-04-20T00:16:58;101552.69;;;6.10;100.00
10064;BME280;5071;52.360;13.134;2023-04-20T00:22:00;101552.81;;;6.17;100.00
10064;BME280;5071;52.360;13.134;2023-04-20T00:27:02;101553.75;;;6.19;100.00
10064;BME280;5071;52.360;13.134;2023-04-20T00:32:05;101550.19;;;6.17;100.00
10064;BME280;5071;52.360;13.134;2023-04-20T00:37:07;101552.06;;;6.25;100.00
10064;BME280;5071;52.360;13.134;2023-04-20T00:42:09;101542.16;;;6.11;100.00
10064;BME280;5071;52.360;13.134;2023-04-20T00:47:12;101544.69;;;6.05;100.00
10064;BME280;5071;52.360;13.134;2023-04-20T00:52:14;101545.53;;;6.04;100.00
10064;BME280;5071;52.360;13.134;2023-04-20T00:57:18;101536.88;;;6.10;100.00
10064;BME280;5071;52.360;13.134;2023-04-20T01:02:22;101535.91;;;6.06;100.00
10064;BME280;5071;52.360;13.134;2023-04-20T01:07:24;101535.81;;;6.00;100.00
10064;BME280;5071;52.360;13.134;2023-04-20T01:12:26;101539.00;;;5.85;100.00
10064;BME280;5071;52.360;13.134;2023-04-20T01:17:31;101535.09;;;5.66;100.00
10064;BME280;5071;52.360;13.134;2023-04-20T01:22:42;101538.78;;;5.74;100.00
10064;BME280;5071;52.360;13.134;2023-04-20T01:27:43;101525.63;;;5.76;100.00
10064;BME280;5071;52.360;13.134;2023-04-20T01:32:46;101536.03;;;5.68;100.00
10064;BME280;5071;52.360;13.134;2023-04-20T01:37:50;101537.66;;;5.61;100.00
10064;BME280;5071;52.360;13.134;2023-04-20T01:42:52;101539.50;;;5.65;100.00
10064;BME280;5071;52.360;13.134;2023-04-20T01:47:54;101529.94;;;5.72;100.00
10064;BME280;5071;52.360;13.134;2023-04-20T01:52:58;101534.31;;;5.70;100.00
10064;BME280;5071;52.360;13.134;2023-04-20T01:58:00;101532.59;;;5.71;100.00
10064;BME280;5071;52.360;13.134;2023-04-20T02:03:02;101526.47;;;5.73;100.00
10064;BME280;5071;52.360;13.134;2023-04-20T02:08:05;101524.88;;;5.81;100.00
10064;BME280;5071;52.360;13.134;2023-04-20T02:13:07;101517.88;;;5.83;100.00
10064;BME280;5071;52.360;13.134;2023-04-20T02:18:09;101528.56;;;5.90;100.00
10064;BME280;5071;52.360;13.134;2023-04-20T02:23:12;101529.34;;;5.84;100.00
10064;BME280;5071;52.360;13.134;2023-04-20T02:28:13;101532.84;;;5.84;100.00
10064;BME280;5071;52.360;13.134;2023-04-20T02:33:16;101526.69;;;5.85;100.00
10064;BME280;5071;52.360;13.134;2023-04-20T02:38:19;101535.59;;;5.91;100.00
10064;BME280;5071;52.360;13.134;2023-04-20T02:43:21;101539.94;;;5.89;100.00
10064;BME280;5071;52.360;13.134;2023-04-20T02:48:23;101541.63;;;5.85;100.00
10064;BME280;5071;52.360;13.134;2023-04-20T02:53:26;101538.97;;;5.83;100.00
10064;BME280;5071;52.360;13.134;2023-04-20T02:58:28;101536.38;;;5.85;100.00
10064;BME280;5071;52.360;13.134;2023-04-20T03:03:30;101540.81;;;5.88;100.00
10064;BME280;5071;52.360;13.134;2023-04-20T03:08:33;101536.25;;;5.79;100.00
10064;BME280;5071;52.360;13.134;2023-04-20T03:13:35;101530.28;;;5.89;100.00
10064;BME280;5071;52.360;13.134;2023-04-20T03:18:37;101535.56;;;5.88;100.00
10064;BME280;5071;52.360;13.134;2023-04-20T03:23:40;101535.56;;;5.88;100.00
10064;BME280;5071;52.360;13.134;2023-04-20T03:28:42;101533.84;;;5.90;100.00
10064;BME280;5071;52.360;13.134;2023-04-20T03:33:44;101539.03;;;5.87;100.00
10064;BME280;5071;52.360;13.134;2023-04-20T03:38:47;101552.31;;;5.91;100.00
10064;BME280;5071;52.360;13.134;2023-04-20T03:43:49;101554.94;;;5.93;100.00
10064;BME280;5071;52.360;13.134;2023-04-20T03:48:51;101559.31;;;5.91;100.00
10064;BME280;5071;52.360;13.134;2023-04-20T03:53:55;101551.38;;;5.88;100.00
10064;BME280;5071;52.360;13.134;2023-04-20T03:58:57;101560.00;;;5.80;100.00
10064;BME280;5071;52.360;13.134;2023-04-20T04:03:59;101559.00;;;5.75;100.00
10064;BME280;5071;52.360;13.134;2023-04-20T04:09:02;101559.59;;;5.62;100.00
10064;BME280;5071;52.360;13.134;2023-04-20T04:14:04;101554.16;;;5.53;100.00
10064;BME280;5071;52.360;13.134;2023-04-20T04:19:06;101559.28;;;5.47;100.00
10064;BME280;5071;52.360;13.134;2023-04-20T04:24:09;101583.03;;;5.48;100.00
10064;BME280;5071;52.360;13.134;2023-04-20T04:29:11;101578.63;;;5.49;100.00
10064;BME280;5071;52.360;13.134;2023-04-20T04:34:13;101582.06;;;5.46;100.00
10064;BME280;5071;52.360;13.134;2023-04-20T04:39:17;101590.06;;;5.49;100.00
10064;BME280;5071;52.360;13.134;2023-04-20T04:44:19;101584.88;;;5.52;100.00
10064;BME280;5071;52.360;13.134;2023-04-20T04:49:21;101586.63;;;5.53;100.00
10064;BME280;5071;52.360;13.134;2023-04-20T04:54:25;101592.59;;;5.44;100.00
10064;BME280;5071;52.360;13.134;2023-04-20T04:59:28;101590.16;;;5.54;100.00
10064;BME280;5071;52.360;13.134;2023-04-20T05:04:32;101606.53;;;5.40;100.00
10064;BME280;5071;52.360;13.134;2023-04-20T05:09:36;101608.22;;;5.38;100.00
10064;BME280;5071;52.360;13.134;2023-04-20T05:14:38;101591.88;;;5.53;100.00
10064;BME280;5071;52.360;13.134;2023-04-20T05:19:40;101597.16;;;5.53;100.00
10064;BME280;5071;52.360;13.134;2023-04-20T05:24:43;101605.69;;;5.41;100.00
10064;BME280;5071;52.360;13.134;2023-04-20T05:29:45;101607.28;;;5.35;100.00
10064;BME280;5071;52.360;13.134;2023-04-20T05:34:46;101618.84;;;5.41;100.00
10064;BME280;5071;52.360;13.134;2023-04-20T05:39:49;101622.81;;;5.62;100.00
10064;BME280;5071;52.360;13.134;2023-04-20T05:44:52;101623.25;;;5.82;100.00
10064;BME280;5071;52.360;13.134;2023-04-20T05:49:54;101624.50;;;5.98;100.00
10064;BME280;5071;52.360;13.134;2023-04-20T05:54:57;101619.47;;;6.12;100.00
10064;BME280;5071;52.360;13.134;2023-04-20T05:59:58;101628.22;;;7.63;95.24
10064;BME280;5071;52.360;13.134;2023-04-20T06:05:01;101634.16;;;8.97;86.06
10064;BME280;5071;52.360;13.134;2023-04-20T06:10:05;101630.06;;;8.41;84.89
10064;BME280;5071;52.360;13.134;2023-04-20T06:15:08;101648.69;;;7.20;90.70
10064;BME280;5071;52.360;13.134;2023-04-20T06:20:10;101627.16;;;6.94;92.86
10064;BME280;5071;52.360;13.134;2023-04-20T06:25:14;101622.56;;;6.82;92.73
10064;BME280;5071;52.360;13.134;2023-04-20T06:30:15;101622.34;;;6.70;94.14
10064;BME280;5071;52.360;13.134;2023-04-20T06:35:18;101628.81;;;6.87;94.66
10064;BME280;5071;52.360;13.134;2023-04-20T06:40:21;101648.63;;;7.14;93.02
10064;BME280;5071;52.360;13.134;2023-04-20T06:45:23;101648.53;;;7.08;93.34
10064;BME280;5071;52.360;13.134;2023-04-20T06:50:26;101662.75;;;7.17;92.31
10064;BME280;5071;52.360;13.134;2023-04-20T06:55:29;101654.41;;;7.48;90.02
10064;BME280;5071;52.360;13.134;2023-04-20T07:00:31;101649.63;;;7.82;87.05
10064;BME280;5071;52.360;13.134;2023-04-20T07:05:35;101655.03;;;7.91;86.93
10064;BME280;5071;52.360;13.134;2023-04-20T07:10:38;101636.56;;;7.92;85.68
10064;BME280;5071;52.360;13.134;2023-04-20T07:15:40;101651.56;;;7.95;84.53
10064;BME280;5071;52.360;13.134;2023-04-20T07:20:44;101653.09;;;7.77;86.03
10064;BME280;5071;52.360;13.134;2023-04-20T07:25:47;101651.63;;;8.00;85.47
10064;BME280;5071;52.360;13.134;2023-04-20T07:30:50;101641.97;;;8.05;85.18
10064;BME280;5071;52.360;13.134;2023-04-20T07:35:51;101654.28;;;8.03;85.59
10064;BME280;5071;52.360;13.134;2023-04-20T07:40:55;101658.84;;;8.14;84.60
10064;BME280;5071;52.360;13.134;2023-04-20T07:45:57;101671.31;;;8.25;82.31
10064;BME280;5071;52.360;13.134;2023-04-20T07:50:59;101678.72;;;8.53;78.44
10064;BME280;5071;52.360;13.134;2023-04-20T07:56:03;101677.97;;;8.62;77.49
10064;BME280;5071;52.360;13.134;2023-04-20T08:01:05;101670.75;;;8.49;78.40
10064;BME280;5071;52.360;13.134;2023-04-20T08:06:08;101677.31;;;8.86;79.72
10064;BME280;5071;52.360;13.134;2023-04-20T08:11:12;101684.31;;;8.80;81.66
10064;BME280;5071;52.360;13.134;2023-04-20T08:16:14;101685.72;;;8.45;81.14
10064;BME280;5071;52.360;13.134;2023-04-20T08:21:16;101677.09;;;8.62;81.71
10064;BME280;5071;52.360;13.134;2023-04-20T08:26:20;101690.63;;;8.94;78.33
10064;BME280;5071;52.360;13.134;2023-04-20T08:31:22;101693.66;;;9.37;78.70
10064;BME280;5071;52.360;13.134;2023-04-20T08:36:24;101679.72;;;9.61;76.22
10064;BME280;5071;52.360;13.134;2023-04-20T08:41:28;101681.41;;;9.53;78.64
10064;BME280;5071;52.360;13.134;2023-04-20T08:46:32;101689.03;;;9.13;77.58
10064;BME280;5071;52.360;13.134;2023-04-20T08:51:35;101686.72;;;9.56;79.78
10064;BME280;5071;52.360;13.134;2023-04-20T08:56:39;101680.53;;;9.54;79.82
10064;BME280;5071;52.360;13.134;2023-04-20T09:01:42;101698.06;;;9.33;79.20
10064;BME280;5071;52.360;13.134;2023-04-20T09:06:46;101698.88;;;9.26;79.40
10064;BME280;5071;52.360;13.134;2023-04-20T09:12:00;101694.97;;;8.87;80.16
10064;BME280;5071;52.360;13.134;2023-04-20T09:17:01;101698.66;;;9.02;80.92
10064;BME280;5071;52.360;13.134;2023-04-20T09:22:04;101693.47;;;9.15;82.71
10064;BME280;5071;52.360;13.134;2023-04-20T09:27:15;101686.44;;;9.19;82.53
10064;BME280;5071;52.360;13.134;2023-04-20T09:32:21;101691.66;;;9.10;80.01
10064;BME280;5071;52.360;13.134;2023-04-20T09:37:23;101690.66;;;8.99;81.59
10064;BME280;5071;52.360;13.134;2023-04-20T09:42:27;101690.47;;;8.80;83.50
10064;BME280;5071;52.360;13.134;2023-04-20T09:47:29;101688.81;;;8.88;86.50
10064;BME280;5071;52.360;13.134;2023-04-20T09:52:33;101676.63;;;9.06;84.19
10064;BME280;5071;52.360;13.134;2023-04-20T09:57:39;101672.28;;;9.17;84.34
10064;BME280;5071;52.360;13.134;2023-04-20T10:02:45;101680.34;;;9.29;84.17
10064;BME280;5071;52.360;13.134;2023-04-20T10:07:58;101686.28;;;9.01;87.63
10064;BME280;5071;52.360;13.134;2023-04-20T10:13:01;101684.56;;;9.06;88.32
10064;BME280;5071;52.360;13.134;2023-04-20T10:18:14;101688.31;;;9.29;86.93
10064;BME280;5071;52.360;13.134;2023-04-20T10:23:17;101687.72;;;9.69;84.33
10064;BME280;5071;52.360;13.134;2023-04-20T10:28:20;101682.41;;;9.72;84.94
10064;BME280;5071;52.360;13.134;2023-04-20T10:33:22;101683.44;;;9.94;84.89
10064;BME280;5071;52.360;13.134;2023-04-20T10:38:28;101678.22;;;10.08;82.50
10064;BME280;5071;52.360;13.134;2023-04-20T10:43:31;101665.88;;;10.24;82.59
10064;BME280;5071;52.360;13.134;2023-04-20T10:48:34;101659.63;;;10.11;81.23
10064;BME280;5071;52.360;13.134;2023-04-20T10:53:36;101666.00;;;10.52;80.86
10064;BME280;5071;52.360;13.134;2023-04-20T10:58:40;101663.38;;;10.52;81.50
10064;BME280;5071;52.360;13.134;2023-04-20T11:03:48;101655.44;;;10.78;79.21
10064;BME280;5071;52.360;13.134;2023-04-20T11:08:51;101649.13;;;10.34;80.21
10064;BME280;5071;52.360;13.134;2023-04-20T11:14:05;101649.25;;;10.68;80.81
10064;BME280;5071;52.360;13.134;2023-04-20T11:19:08;101651.75;;;10.29;82.40
10064;BME280;5071;52.360;13.134;2023-04-20T11:24:16;101649.97;;;10.24;81.05
10064;BME280;5071;52.360;13.134;2023-04-20T11:29:31;101646.53;;;10.53;81.71
10064;BME280;5071;52.360;13.134;2023-04-20T11:34:34;101637.75;;;11.00;78.28
10064;BME280;5071;52.360;13.134;2023-04-20T11:39:36;101634.19;;;10.67;80.46
10064;BME280;5071;52.360;13.134;2023-04-20T11:44:40;101627.09;;;10.66;79.53
10064;BME280;5071;52.360;13.134;2023-04-20T11:49:42;101621.81;;;11.09;79.62
10064;BME280;5071;52.360;13.134;2023-04-20T11:54:44;101618.25;;;11.25;78.37
10064;BME280;5071;52.360;13.134;2023-04-20T11:59:47;101597.88;;;11.31;77.74
10064;BME280;5071;52.360;13.134;2023-04-20T12:04:50;101598.66;;;11.79;74.53
10064;BME280;5071;52.360;13.134;2023-04-20T12:09:52;101592.34;;;12.03;72.81
10064;BME280;5071;52.360;13.134;2023-04-20T12:14:55;101598.63;;;11.93;74.22
10064;BME280;5071;52.360;13.134;2023-04-20T12:19:57;101598.34;;;12.47;72.46
10064;BME280;5071;52.360;13.134;2023-04-20T12:24:59;101595.72;;;12.39;72.12
10064;BME280;5071;52.360;13.134;2023-04-20T12:30:03;101588.94;;;13.12;71.14
10064;BME280;5071;52.360;13.134;2023-04-20T12:35:05;101597.34;;;13.64;69.11
10064;BME280;5071;52.360;13.134;2023-04-20T12:40:08;101584.63;;;13.87;68.06
10064;BME280;5071;52.360;13.134;2023-04-20T12:45:12;101580.13;;;13.91;67.18
10064;BME280;5071;52.360;13.134;2023-04-20T12:50:13;101571.81;;;14.12;67.38
10064;BME280;5071;52.360;13.134;2023-04-20T12:55:16;101563.16;;;13.96;66.60
10064;BME280;5071;52.360;13.134;2023-04-20T13:00:19;101558.69;;;14.59;66.24
10064;BME280;5071;52.360;13.134;2023-04-20T13:05:21;101555.53;;;15.83;64.94
10064;BME280;5071;52.360;13.134;2023-04-20T13:10:23;101547.63;;;15.79;63.38
10064;BME280;5071;52.360;13.134;2023-04-20T13:15:27;101541.09;;;14.99;65.35
10064;BME280;5071;52.360;13.134;2023-04-20T13:20:40;101524.81;;;15.12;65.65
10064;BME280;5071;52.360;13.134;2023-04-20T13:25:42;101522.13;;;15.12;66.27
10064;BME280;5071;52.360;13.134;2023-04-20T13:30:46;101534.00;;;15.44;65.29
10064;BME280;5071;52.360;13.134;2023-04-20T13:35:48;101518.25;;;16.16;64.86
10064;BME280;5071;52.360;13.134;2023-04-20T13:40:51;101510.53;;;16.01;63.32
10064;BME280;5071;52.360;13.134;2023-04-20T13:45:54;101515.31;;;16.25;63.97
10064;BME280;5071;52.360;13.134;2023-04-20T13:50:56;101502.00;;;16.22;61.25
10064;BME280;5071;52.360;13.134;2023-04-20T13:55:58;101508.56;;;16.10;61.99
10064;BME280;5071;52.360;13.134;2023-04-20T14:01:07;101494.06;;;15.35;63.60
10064;BME280;5071;52.360;13.134;2023-04-20T14:06:09;101496.84;;;15.29;63.99
10064;BME280;5071;52.360;13.134;2023-04-20T14:11:11;101487.94;;;15.72;61.75
10064;BME280;5071;52.360;13.134;2023-04-20T14:16:15;101487.84;;;16.17;61.76
10064;BME280;5071;52.360;13.134;2023-04-20T14:21:18;101472.88;;;16.80;60.38
10064;BME280;5071;52.360;13.134;2023-04-20T14:26:20;101469.59;;;17.03;59.01
10064;BME280;5071;52.360;13.134;2023-04-20T14:31:23;101465.13;;;15.96;60.58
10064;BME280;5071;52.360;13.134;2023-04-20T14:36:26;101456.44;;;16.24;60.79
10064;BME280;5071;52.360;13.134;2023-04-20T14:41:28;101465.56;;;16.15;60.27
10064;BME280;5071;52.360;13.134;2023-04-20T14:46:34;101450.78;;;17.36;57.80
10064;BME280;5071;52.360;13.134;2023-04-20T14:51:36;101440.47;;;17.52;58.35
10064;BME280;5071;52.360;13.134;2023-04-20T14:56:38;101419.59;;;17.62;58.00
10064;BME280;5071;52.360;13.134;2023-04-20T15:01:42;101429.59;;;16.61;58.91
10064;BME280;5071;52.360;13.134;2023-04-20T15:07:02;101435.91;;;15.85;60.94
10064;BME280;5071;52.360;13.134;2023-04-20T15:12:05;101434.00;;;15.92;61.33
10064;BME280;5071;52.360;13.134;2023-04-20T15:17:09;101429.38;;;15.58;63.29
10064;BME280;5071;52.360;13.134;2023-04-20T15:22:10;101425.97;;;15.50;62.80
10064;BME280;5071;52.360;13.134;2023-04-20T15:27:12;101423.25;;;15.93;60.40
10064;BME280;5071;52.360;13.134;2023-04-20T15:32:16;101409.50;;;16.43;59.55
10064;BME280;5071;52.360;13.134;2023-04-20T15:37:18;101418.94;;;16.93;58.90
10064;BME280;5071;52.360;13.134;2023-04-20T15:42:20;101417.72;;;16.70;59.40
10064;BME280;5071;52.360;13.134;2023-04-20T15:47:24;101420.06;;;16.84;58.98
10064;BME280;5071;52.360;13.134;2023-04-20T15:52:27;101414.00;;;16.76;60.20
10064;BME280;5071;52.360;13.134;2023-04-20T15:57:29;101409.72;;;16.68;57.58
10064;BME280;5071;52.360;13.134;2023-04-20T16:02:33;101419.97;;;16.52;58.09
10064;BME280;5071;52.360;13.134;2023-04-20T16:07:35;101408.88;;;16.33;58.02
10064;BME280;5071;52.360;13.134;2023-04-20T16:12:37;101410.06;;;16.56;58.62
10064;BME280;5071;52.360;13.134;2023-04-20T16:17:40;101400.56;;;16.44;60.02
10064;BME280;5071;52.360;13.134;2023-04-20T16:22:42;101411.13;;;16.49;58.69
10064;BME280;5071;52.360;13.134;2023-04-20T16:27:44;101408.16;;;16.61;58.45
10064;BME280;5071;52.360;13.134;2023-04-20T16:32:47;101400.31;;;16.54;57.96
10064;BME280;5071;52.360;13.134;2023-04-20T16:37:49;101399.75;;;16.41;58.76
10064;BME280;5071;52.360;13.134;2023-04-20T16:42:51;101410.38;;;16.44;59.23
10064;BME280;5071;52.360;13.134;2023-04-20T16:47:56;101407.94;;;16.35;59.02
10064;BME280;5071;52.360;13.134;2023-04-20T16:52:58;101412.06;;;16.12;59.18
10064;BME280;5071;52.360;13.134;2023-04-20T16:58:00;101409.88;;;15.93;60.53
10064;BME280;5071;52.360;13.134;2023-04-20T17:03:29;101407.66;;;15.73;60.52
10064;BME280;5071;52.360;13.134;2023-04-20T17:08:32;101416.72;;;15.65;62.14
10064;BME280;5071;52.360;13.134;2023-04-20T17:13:34;101408.91;;;15.54;63.20
10064;BME280;5071;52.360;13.134;2023-04-20T17:18:38;101413.50;;;15.50;63.48
10064;BME280;5071;52.360;13.134;2023-04-20T17:23:42;101411.84;;;15.45;63.71
10064;BME280;5071;52.360;13.134;2023-04-20T17:28:44;101414.78;;;15.31;64.68
10064;BME280;5071;52.360;13.134;2023-04-20T17:33:47;101414.25;;;15.13;65.00
10064;BME280;5071;52.360;13.134;2023-04-20T17:38:50;101418.25;;;14.92;66.06
10064;BME280;5071;52.360;13.134;2023-04-20T17:43:52;101414.13;;;14.74;66.83
10064;BME280;5071;52.360;13.134;2023-04-20T17:48:55;101418.06;;;14.52;68.37
10064;BME280;5071;52.360;13.134;2023-04-20T17:53:57;101425.41;;;14.41;68.33
10064;BME280;5071;52.360;13.134;2023-04-20T17:59:00;101428.97;;;14.39;67.92
10064;BME280;5071;52.360;13.134;2023-04-20T18:04:04;101429.09;;;14.32;68.16
10064;BME280;5071;52.360;13.134;2023-04-20T18:09:06;101432.75;;;14.26;67.90
10064;BME280;5071;52.360;13.134;2023-04-20T18:14:08;101437.47;;;14.10;68.56
10064;BME280;5071;52.360;13.134;2023-04-20T18:19:12;101452.81;;;13.94;69.56
10064;BME280;5071;52.360;13.134;2023-04-20T18:24:14;101450.50;;;13.71;70.24
10064;BME280;5071;52.360;13.134;2023-04-20T18:29:16;101455.28;;;13.46;71.74
10064;BME280;5071;52.360;13.134;2023-04-20T18:34:19;101456.09;;;13.51;71.74
10064;BME280;5071;52.360;13.134;2023-04-20T18:39:22;101457.25;;;13.32;72.38
10064;BME280;5071;52.360;13.134;2023-04-20T18:44:24;101464.41;;;13.25;72.69
10064;BME280;5071;52.360;13.134;2023-04-20T18:49:27;101465.38;;;13.16;72.86
10064;BME280;5071;52.360;13.134;2023-04-20T18:54:29;101454.16;;;12.88;74.39
10064;BME280;5071;52.360;13.134;2023-04-20T18:59:32;101457.84;;;12.76;74.94
10064;BME280;5071;52.360;13.134;2023-04-20T19:04:35;101456.28;;;12.54;75.81
10064;BME280;5071;52.360;13.134;2023-04-20T19:09:37;101456.38;;;12.38;77.06
10064;BME280;5071;52.360;13.134;2023-04-20T19:14:39;101455.44;;;12.45;76.51
10064;BME280;5071;52.360;13.134;2023-04-20T19:19:42;101462.56;;;12.43;77.01
10064;BME280;5071;52.360;13.134;2023-04-20T19:24:44;101454.66;;;12.34;77.35
10064;BME280;5071;52.360;13.134;2023-04-20T19:29:46;101458.19;;;12.36;77.71
10064;BME280;5071;52.360;13.134;2023-04-20T19:34:50;101468.06;;;12.20;78.23
10064;BME280;5071;52.360;13.134;2023-04-20T19:39:53;101465.53;;;12.00;79.76
10064;BME280;5071;52.360;13.134;2023-04-20T19:44:55;101459.41;;;11.91;79.89
10064;BME280;5071;52.360;13.134;2023-04-20T19:49:58;101457.53;;;12.05;80.00
10064;BME280;5071;52.360;13.134;2023-04-20T19:55:03;101453.97;;;12.09;79.72
10064;BME280;5071;52.360;13.134;2023-04-20T20:00:07;101461.75;;;12.35;78.29
10064;BME280;5071;52.360;13.134;2023-04-20T20:05:10;101454.78;;;12.19;79.07
10064;BME280;5071;52.360;13.134;2023-04-20T20:10:12;101461.03;;;12.09;79.48
10064;BME280;5071;52.360;13.134;2023-04-20T20:15:15;101458.41;;;12.05;79.80
10064;BME280;5071;52.360;13.134;2023-04-20T20:20:18;101462.88;;;12.00;79.85
10064;BME280;5071;52.360;13.134;2023-04-20T20:25:20;101462.97;;;11.82;80.79
10064;BME280;5071;52.360;13.134;2023-04-20T20:30:23;101466.53;;;11.82;80.69
10064;BME280;5071;52.360;13.134;2023-04-20T20:35:26;101467.38;;;11.86;80.46
10064;BME280;5071;52.360;13.134;2023-04-20T20:40:28;101474.56;;;11.73;81.03
10064;BME280;5071;52.360;13.134;2023-04-20T20:45:30;101466.47;;;11.92;79.74
10064;BME280;5071;52.360;13.134;2023-04-20T20:50:34;101461.22;;;11.76;80.31
10064;BME280;5071;52.360;13.134;2023-04-20T20:55:36;101460.47;;;11.51;81.56
10064;BME280;5071;52.360;13.134;2023-04-20T21:00:39;101458.75;;;11.36;82.33
10064;BME280;5071;52.360;13.134;2023-04-20T21:05:42;101454.25;;;11.57;81.73
10064;BME280;5071;52.360;13.134;2023-04-20T21:10:44;101450.44;;;12.02;79.38
10064;BME280;5071;52.360;13.134;2023-04-20T21:15:46;101450.31;;;12.19;78.33
10064;BME280;5071;52.360;13.134;2023-04-20T21:20:49;101456.50;;;12.23;78.21
10064;BME280;5071;52.360;13.134;2023-04-20T21:25:52;101448.50;;;12.26;78.03
10064;BME280;5071;52.360;13.134;2023-04-20T21:30:53;101443.25;;;12.15;78.03
10064;BME280;5071;52.360;13.134;2023-04-20T21:35:56;101456.50;;;12.26;78.27
10064;BME280;5071;52.360;13.134;2023-04-20T21:41:00;101457.38;;;12.23;77.93
10064;BME280;5071;52.360;13.134;2023-04-20T21:46:02;101463.69;;;12.09;79.00
10064;BME280;5071;52.360;13.134;2023-04-20T21:51:05;101453.09;;;12.02;79.14
10064;BME280;5071;52.360;13.134;2023-04-20T21:56:08;101465.53;;;12.03;78.94
10064;BME280;5071;52.360;13.134;2023-04-20T22:01:10;101467.34;;;11.89;79.87
10064;BME280;5071;52.360;13.134;2023-04-20T22:06:13;101468.28;;;11.80;80.03
10064;BME280;5071;52.360;13.134;2023-04-20T22:11:15;101472.81;;;11.64;80.98
10064;BME280;5071;52.360;13.134;2023-04-20T22:16:17;101474.59;;;11.64;81.12
10064;BME280;5071;52.360;13.134;2023-04-20T22:21:21;101478.19;;;11.55;81.59
10064;BME280;5071;52.360;13.134;2023-04-20T22:26:23;101479.09;;;11.46;82.32
10064;BME280;5071;52.360;13.134;2023-04-20T22:31:25;101475.50;;;11.55;81.68
10064;BME280;5071;52.360;13.134;2023-04-20T22:36:29;101474.69;;;11.44;82.14
10064;BME280;5071;52.360;13.134;2023-04-20T22:41:30;101477.34;;;11.45;82.11
10064;BME280;5071;52.360;13.134;2023-04-20T22:46:32;101478.28;;;11.27;82.97
10064;BME280;5071;52.360;13.134;2023-04-20T22:51:36;101476.53;;;11.23;83.08
10064;BME280;5071;52.360;13.134;2023-04-20T22:56:38;101473.00;;;11.09;83.82
10064;BME280;5071;52.360;13.134;2023-04-20T23:01:40;101476.56;;;11.06;83.76
10064;BME280;5071;52.360;13.134;2023-04-20T23:06:43;101479.28;;;10.93;84.43
10064;BME280;5071;52.360;13.134;2023-04-20T23:11:46;101477.53;;;10.76;85.17
10064;BME280;5071;52.360;13.134;2023-04-20T23:16:48;101479.28;;;10.73;85.56
10064;BME280;5071;52.360;13.134;2023-04-20T23:21:52;101474.88;;;10.78;85.51
10064;BME280;5071;52.360;13.134;2023-04-20T23:26:54;101474.88;;;10.76;85.08
10064;BME280;5071;52.360;13.134;2023-04-20T23:31:55;101479.28;;;10.79;85.14
10064;BME280;5071;52.360;13.134;2023-04-20T23:36:59;101476.66;;;10.65;85.77
10064;BME280;5071;52.360;13.134;2023-04-20T23:42:02;101474.88;;;10.58;86.02
10064;BME280;5071;52.360;13.134;2023-04-20T23:47:04;101482.84;;;10.38;86.82
10064;BME280;5071;52.360;13.134;2023-04-20T23:52:07;101477.50;;;10.19;87.98
10064;BME280;5071;52.360;13.134;2023-04-20T23:57:09;101484.50;;;9.92;88.79
